Aérodrome :
LOGIN :

S'inscrire | Disclaimer

   EN    FR    IT 

 










Légende :    VFR   VFR Marginal   IFR   IFR Intensif   IFR Très Intensif
Visi : 
Plafond : 
>= 8 km
>= 3000ft
5 à 8 km
1000 à 3000 ft
1500m à 5 km
500 à 1000 ft
800 à 1500m
200 à 500 ft
< 800m
< 200 ft
Symboles :   Orages  Brouillard  Fortes neiges  Fortes précipitations  Vent > 20 kt
SIGMETs :   Divers  Orages  Givrage  Turbulence  Onde Orograph.  Cendres Volcan.







- Altitude de l'aérodrome : 788 ft
- Code IATA : DCM
- Voir les cartes d'approche


LFCK - Castres-Mazamet

DERNIER METAR :
  • 101330Z AUTO 30013KT 9999 BKN048 10/05 Q1031 NOSIG

METARs EXPIRÉS :
  • 101300Z AUTO 31014KT 9999 FEW022 SCT028 OVC046 10/05 Q1031 NOSIG
  • 101230Z AUTO 31015KT 9999 FEW019 SCT036 OVC046 10/06 Q1031 NOSIG
  • 101200Z AUTO 31014KT 9999 FEW021 SCT030 BKN039 09/06 Q1032 NOSIG
  • 101130Z AUTO 31011KT 9999 BKN019 BKN024 OVC052 10/06 Q1032 NOSIG
  • 101100Z AUTO 30012KT 9999 BKN013 OVC052 09/07 Q1032 BECMG BKN016

TAF TAF LFCK
Valide du 10 à 12h jusqu'au 10 à 21h UTC


101100Z 1012/1021 30012KT 9999 BKN013
BECMG 1012/1013 BKN016
TEMPO 1013/1018 SCT020
Pas de NOTAMs connus pour ce terrain.



MET'MAP, la Météo Aéronautique d'un coup d'oeil ! - Copyright ORBIFLY Décembre 2007 - Disclaimer

ORBIFLY MET'MAP TEAM :

Programmation & Développement : Alexandra Zaïnal
Conception & Développement : Baudouin d'Aumeries
Co-Programmation & Développement : Marc-Olivier Méhu
Soutien technique & logistique : Manuel Goepfert

Contact : metmap@orbifly.com




SOURCES & CREDITS :

   NOAA